PWSweather.com
Personal Weather Stations
Station Observations
KMAMEDFI2
Medfield, MA 02052

Medfield, MA 02052

Lat: 42.1900822, Lon: -71.3296889

Elevation: 138

Station Type: Rainwise WS MK-III

http://www.medfieldweather.com

High Low Average
Temperature 68.9°F20.5°C 58.6°F14.8°C 64.4°F18.0°C
Dew Point 68.1°F20.1°C 58.1°F14.5°C 63.8°F17.7°C
Winds 10.4 mph 16.7 kmh Calm Calm 4.0 mph SSE6.4 kmh SSE
Wind Gusts 18.4 mph29.6 kmh -- 7.0 mph11.3 kmh
Humidity 99% 93% 98%
Pressure 30.03 in1016.9 mb 29.84 in1010.5 mb -
Precipitation 0.41 in10.4 mm - -
Hour Temp Dew Point Humidity Winds Wind Gusts Pressure Precip Precip Rate Daily Precip Total
12:00 AM 65.1°F18.4°C 64.5°F18.1°C 98% 5.8 mph SE9.3 kmh SE 9.2 mph14.8 kmh 29.87 in1011.5 mb - 0.09 in2.3 mm 0.09 in2.3 mm
12:10 AM 65.0°F18.3°C 64.4°F18.0°C 98% 5.8 mph SSE9.3 kmh SSE 16.1 mph25.9 kmh 29.87 in1011.5 mb - 0.03 in0.8 mm 0.09 in2.3 mm
12:20 AM 65.1°F18.4°C 64.5°F18.1°C 98% 4.6 mph S7.4 kmh S 2.3 mph3.7 kmh 29.86 in1011.2 mb - 0.01 in0.3 mm 0.09 in2.3 mm
12:30 AM 65.2°F18.4°C 64.6°F18.1°C 98% 3.5 mph S5.6 kmh S 5.8 mph9.3 kmh 29.86 in1011.2 mb - 0.01 in0.3 mm 0.09 in2.3 mm
12:40 AM 65.3°F18.5°C 64.7°F18.2°C 98% 2.3 mph E3.7 kmh E 5.8 mph9.3 kmh 29.86 in1011.2 mb - 0.01 in0.3 mm 0.09 in2.3 mm
12:50 AM 65.4°F18.6°C 64.8°F18.2°C 98% 4.6 mph SE7.4 kmh SE 6.9 mph11.1 kmh 29.86 in1011.2 mb - 0.01 in0.3 mm 0.09 in2.3 mm
01:00 AM 65.7°F18.7°C 65.1°F18.4°C 98% 5.8 mph S9.3 kmh S 10.4 mph16.7 kmh 29.86 in1011.2 mb - 0.00 in0.0 mm 0.09 in2.3 mm
01:10 AM 65.9°F18.8°C 65.3°F18.5°C 98% 10.4 mph S16.7 kmh S 11.5 mph18.5 kmh 29.86 in1011.2 mb - 0.00 in0.0 mm 0.09 in2.3 mm
01:20 AM 66.1°F18.9°C 65.8°F18.8°C 99% 9.2 mph SW14.8 kmh SW 9.2 mph14.8 kmh 29.86 in1011.2 mb - 0.00 in0.0 mm 0.09 in2.3 mm
01:30 AM 65.9°F18.8°C 65.3°F18.5°C 98% 4.6 mph S7.4 kmh S 5.8 mph9.3 kmh 29.86 in1011.2 mb - 0.00 in0.0 mm 0.09 in2.3 mm
01:40 AM 66.0°F18.9°C 65.7°F18.7°C 99% 5.8 mph S9.3 kmh S 8.1 mph13.0 kmh 29.86 in1011.2 mb - 0.00 in0.0 mm 0.09 in2.3 mm
01:50 AM 65.9°F18.8°C 65.3°F18.5°C 98% 4.6 mph NW7.4 kmh NW 5.8 mph9.3 kmh 29.85 in1010.8 mb - 0.01 in0.3 mm 0.10 in2.5 mm
02:00 AM 65.9°F18.8°C 65.3°F18.5°C 98% 6.9 mph S11.1 kmh S 16.1 mph25.9 kmh 29.86 in1011.2 mb - 0.01 in0.3 mm 0.10 in2.5 mm
02:10 AM 66.1°F18.9°C 65.8°F18.8°C 99% 5.8 mph S9.3 kmh S 9.2 mph14.8 kmh 29.86 in1011.2 mb - 0.01 in0.3 mm 0.10 in2.5 mm
02:20 AM 66.3°F19.1°C 66.0°F18.9°C 99% 4.6 mph S7.4 kmh S 8.1 mph13.0 kmh 29.85 in1010.8 mb - 0.01 in0.3 mm 0.10 in2.5 mm
02:30 AM 66.6°F19.2°C 66.3°F19.1°C 99% 5.8 mph SE9.3 kmh SE 6.9 mph11.1 kmh 29.85 in1010.8 mb - 0.01 in0.3 mm 0.10 in2.5 mm
02:40 AM 67.0°F19.4°C 66.7°F19.3°C 99% 6.9 mph SSE11.1 kmh SSE 18.4 mph29.6 kmh 29.84 in1010.5 mb - 0.01 in0.3 mm 0.10 in2.5 mm
02:50 AM 66.9°F19.4°C 66.6°F19.2°C 99% 5.8 mph SSE9.3 kmh SSE 8.1 mph13.0 kmh 29.84 in1010.5 mb - 0.00 in0.0 mm 0.10 in2.5 mm
03:00 AM 66.9°F19.4°C 66.6°F19.2°C 99% 8.1 mph S13.0 kmh S 10.4 mph16.7 kmh 29.86 in1011.2 mb - 0.00 in0.0 mm 0.10 in2.5 mm
03:10 AM 67.1°F19.5°C 66.8°F19.3°C 99% 5.8 mph S9.3 kmh S 18.4 mph29.6 kmh 29.85 in1010.8 mb - 0.00 in0.0 mm 0.10 in2.5 mm
03:20 AM 67.1°F19.5°C 66.8°F19.3°C 99% 4.6 mph S7.4 kmh S 11.5 mph18.5 kmh 29.86 in1011.2 mb - 0.00 in0.0 mm 0.10 in2.5 mm
03:30 AM 67.1°F19.5°C 66.5°F19.2°C 98% 5.8 mph SE9.3 kmh SE 8.1 mph13.0 kmh 29.86 in1011.2 mb - 0.00 in0.0 mm 0.10 in2.5 mm
03:40 AM 66.9°F19.4°C 66.3°F19.1°C 98% 3.5 mph SSW5.6 kmh SSW 13.8 mph22.2 kmh 29.87 in1011.5 mb - 0.00 in0.0 mm 0.10 in2.5 mm
03:50 AM 66.6°F19.2°C 66.0°F18.9°C 98% 4.6 mph S7.4 kmh S 8.1 mph13.0 kmh 29.87 in1011.5 mb - 0.00 in0.0 mm 0.10 in2.5 mm
04:00 AM 66.3°F19.1°C 65.7°F18.7°C 98% 3.5 mph SW5.6 kmh SW 2.3 mph3.7 kmh 29.87 in1011.5 mb - 0.00 in0.0 mm 0.10 in2.5 mm
04:10 AM 65.9°F18.8°C 65.0°F18.3°C 97% 3.5 mph SE5.6 kmh SE 2.3 mph3.7 kmh 29.87 in1011.5 mb - 0.00 in0.0 mm 0.10 in2.5 mm
04:20 AM 65.9°F18.8°C 65.0°F18.3°C 97% 3.5 mph S5.6 kmh S 3.5 mph5.6 kmh 29.88 in1011.9 mb - 0.00 in0.0 mm 0.10 in2.5 mm
04:30 AM 65.5°F18.6°C 64.9°F18.3°C 98% 2.3 mph SSE3.7 kmh SSE 2.3 mph3.7 kmh 29.88 in1011.9 mb - 0.00 in0.0 mm 0.10 in2.5 mm
04:40 AM 65.2°F18.4°C 64.6°F18.1°C 98% 4.6 mph S7.4 kmh S 9.2 mph14.8 kmh 29.88 in1011.9 mb - 0.00 in0.0 mm 0.10 in2.5 mm
04:50 AM 65.1°F18.4°C 64.5°F18.1°C 98% 2.3 mph SE3.7 kmh SE 6.9 mph11.1 kmh 29.88 in1011.9 mb - 0.00 in0.0 mm 0.10 in2.5 mm
05:00 AM 64.9°F18.3°C 64.4°F18.0°C 98% 4.6 mph S7.4 kmh S 8.1 mph13.0 kmh 29.88 in1011.9 mb - 0.00 in0.0 mm 0.10 in2.5 mm
05:10 AM 64.9°F18.3°C 64.3°F17.9°C 98% 2.3 mph SE3.7 kmh SE 5.8 mph9.3 kmh 29.88 in1011.9 mb - 0.00 in0.0 mm 0.10 in2.5 mm
05:20 AM 64.5°F18.1°C 64.0°F17.8°C 98% 2.3 mph S3.7 kmh S 3.5 mph5.6 kmh 29.89 in1012.2 mb - 0.00 in0.0 mm 0.10 in2.5 mm
05:30 AM 64.2°F17.9°C 63.7°F17.6°C 98% 2.3 mph W3.7 kmh W 2.3 mph3.7 kmh 29.89 in1012.2 mb - 0.02 in0.5 mm 0.12 in3.0 mm
05:40 AM 64.1°F17.8°C 63.5°F17.5°C 98% 3.5 mph SSE5.6 kmh SSE 8.1 mph13.0 kmh 29.89 in1012.2 mb - 0.03 in0.8 mm 0.13 in3.3 mm
05:50 AM 64.1°F17.8°C 63.5°F17.5°C 98% 3.5 mph SE5.6 kmh SE 3.5 mph5.6 kmh 29.89 in1012.2 mb - 0.04 in1.0 mm 0.14 in3.6 mm
06:00 AM 64.3°F17.9°C 63.7°F17.6°C 98% 3.5 mph SE5.6 kmh SE 2.3 mph3.7 kmh 29.88 in1011.9 mb - 0.04 in1.0 mm 0.14 in3.6 mm
06:10 AM 64.2°F17.9°C 63.6°F17.6°C 98% 2.3 mph S3.7 kmh S 2.3 mph3.7 kmh 29.89 in1012.2 mb - 0.04 in1.0 mm 0.14 in3.6 mm
06:20 AM 64.1°F17.8°C 63.5°F17.5°C 98% 2.3 mph S3.7 kmh S 5.8 mph9.3 kmh 29.90 in1012.5 mb - 0.04 in1.0 mm 0.14 in3.6 mm
06:30 AM 64.3°F17.9°C 63.7°F17.6°C 98% 2.3 mph SE3.7 kmh SE 2.3 mph3.7 kmh 29.90 in1012.5 mb - 0.02 in0.5 mm 0.14 in3.6 mm
06:40 AM 64.6°F18.1°C 64.0°F17.8°C 98% 5.8 mph S9.3 kmh S 5.8 mph9.3 kmh 29.90 in1012.5 mb - 0.01 in0.3 mm 0.14 in3.6 mm
06:50 AM 64.9°F18.3°C 64.3°F17.9°C 98% 3.5 mph SSE5.6 kmh SSE 3.5 mph5.6 kmh 29.90 in1012.5 mb - 0.00 in0.0 mm 0.14 in3.6 mm
07:00 AM 65.3°F18.5°C 64.7°F18.2°C 98% 2.3 mph SSE3.7 kmh SSE 5.8 mph9.3 kmh 29.90 in1012.5 mb - 0.00 in0.0 mm 0.14 in3.6 mm
07:10 AM 65.4°F18.6°C 64.8°F18.2°C 98% 2.3 mph SSE3.7 kmh SSE 8.1 mph13.0 kmh 29.91 in1012.9 mb - 0.01 in0.3 mm 0.15 in3.8 mm
07:20 AM 65.5°F18.6°C 64.9°F18.3°C 98% 4.6 mph SSE7.4 kmh SSE 5.8 mph9.3 kmh 29.90 in1012.5 mb - 0.01 in0.3 mm 0.15 in3.8 mm
07:30 AM 65.7°F18.7°C 65.1°F18.4°C 98% 3.5 mph SE5.6 kmh SE 3.5 mph5.6 kmh 29.90 in1012.5 mb - 0.01 in0.3 mm 0.15 in3.8 mm
07:40 AM 65.9°F18.8°C 65.3°F18.5°C 98% 5.8 mph SW9.3 kmh SW 8.1 mph13.0 kmh 29.90 in1012.5 mb - 0.01 in0.3 mm 0.15 in3.8 mm
07:50 AM 65.9°F18.8°C 65.3°F18.5°C 98% 5.8 mph S9.3 kmh S 8.1 mph13.0 kmh 29.91 in1012.9 mb - 0.01 in0.3 mm 0.15 in3.8 mm
08:00 AM 65.8°F18.8°C 65.2°F18.4°C 98% 4.6 mph SSE7.4 kmh SSE 9.2 mph14.8 kmh 29.92 in1013.2 mb - 0.01 in0.3 mm 0.15 in3.8 mm
08:10 AM 65.7°F18.7°C 65.1°F18.4°C 98% 4.6 mph SE7.4 kmh SE 5.8 mph9.3 kmh 29.93 in1013.5 mb - 0.00 in0.0 mm 0.15 in3.8 mm
08:20 AM 65.6°F18.7°C 65.0°F18.3°C 98% 3.5 mph S5.6 kmh S 5.8 mph9.3 kmh 29.94 in1013.9 mb - 0.00 in0.0 mm 0.15 in3.8 mm
08:30 AM 65.4°F18.6°C 64.8°F18.2°C 98% 4.6 mph SW7.4 kmh SW 8.1 mph13.0 kmh 29.95 in1014.2 mb - 0.00 in0.0 mm 0.15 in3.8 mm
08:40 AM 65.1°F18.4°C 64.5°F18.1°C 98% 2.3 mph ESE3.7 kmh ESE 8.1 mph13.0 kmh 29.96 in1014.6 mb - 0.03 in0.8 mm 0.18 in4.6 mm
08:50 AM 64.6°F18.1°C 64.1°F17.8°C 98% 2.3 mph SSW3.7 kmh SSW 5.8 mph9.3 kmh 29.96 in1014.6 mb - 0.09 in2.3 mm 0.24 in6.1 mm
09:00 AM 64.3°F17.9°C 63.7°F17.6°C 98% 3.5 mph S5.6 kmh S 8.1 mph13.0 kmh 29.96 in1014.6 mb - 0.14 in3.6 mm 0.29 in7.4 mm
09:10 AM 64.3°F17.9°C 63.7°F17.6°C 98% 2.3 mph SE3.7 kmh SE 2.3 mph3.7 kmh 29.96 in1014.6 mb - 0.14 in3.6 mm 0.29 in7.4 mm
09:20 AM 64.5°F18.1°C 63.9°F17.7°C 98% 2.3 mph SE3.7 kmh SE 3.5 mph5.6 kmh 29.96 in1014.6 mb - 0.14 in3.6 mm 0.29 in7.4 mm
09:30 AM 64.9°F18.3°C 64.3°F17.9°C 98% 3.5 mph ESE5.6 kmh ESE 3.5 mph5.6 kmh 29.96 in1014.6 mb - 0.14 in3.6 mm 0.29 in7.4 mm
09:40 AM 65.2°F18.4°C 64.7°F18.2°C 98% 4.6 mph SE7.4 kmh SE 5.8 mph9.3 kmh 29.97 in1014.9 mb - 0.14 in3.6 mm 0.31 in7.9 mm
09:50 AM 65.5°F18.6°C 64.9°F18.3°C 98% 3.5 mph S5.6 kmh S 10.4 mph16.7 kmh 29.96 in1014.6 mb - 0.08 in2.0 mm 0.31 in7.9 mm
10:00 AM 65.5°F18.6°C 64.9°F18.3°C 98% 3.5 mph SE5.6 kmh SE 6.9 mph11.1 kmh 29.96 in1014.6 mb - 0.02 in0.5 mm 0.31 in7.9 mm
10:10 AM 65.6°F18.7°C 65.0°F18.3°C 98% 4.6 mph S7.4 kmh S 8.1 mph13.0 kmh 29.96 in1014.6 mb - 0.02 in0.5 mm 0.31 in7.9 mm
10:20 AM 65.8°F18.8°C 65.2°F18.4°C 98% 2.3 mph SE3.7 kmh SE 3.5 mph5.6 kmh 29.96 in1014.6 mb - 0.02 in0.5 mm 0.31 in7.9 mm
10:30 AM 66.1°F18.9°C 65.8°F18.8°C 99% 4.6 mph SSE7.4 kmh SSE 9.2 mph14.8 kmh 29.97 in1014.9 mb - 0.02 in0.5 mm 0.31 in7.9 mm
10:40 AM 66.2°F19.0°C 65.9°F18.8°C 99% 5.8 mph SSE9.3 kmh SSE 11.5 mph18.5 kmh 29.96 in1014.6 mb - 0.00 in0.0 mm 0.31 in7.9 mm
10:50 AM 66.4°F19.1°C 66.1°F18.9°C 99% 2.3 mph SE3.7 kmh SE 3.5 mph5.6 kmh 29.96 in1014.6 mb - 0.00 in0.0 mm 0.31 in7.9 mm
11:00 AM 66.5°F19.2°C 66.2°F19.0°C 99% 4.6 mph ESE7.4 kmh ESE 3.5 mph5.6 kmh 29.97 in1014.9 mb - 0.00 in0.0 mm 0.31 in7.9 mm
11:10 AM 66.9°F19.4°C 66.6°F19.2°C 99% 4.6 mph SE7.4 kmh SE 5.8 mph9.3 kmh 29.97 in1014.9 mb - 0.00 in0.0 mm 0.31 in7.9 mm
11:20 AM 67.1°F19.5°C 66.8°F19.3°C 99% 2.3 mph S3.7 kmh S 5.8 mph9.3 kmh 29.97 in1014.9 mb - 0.00 in0.0 mm 0.31 in7.9 mm
11:30 AM 67.4°F19.7°C 67.1°F19.5°C 99% 3.5 mph SW5.6 kmh SW 2.3 mph3.7 kmh 29.97 in1014.9 mb - 0.00 in0.0 mm 0.31 in7.9 mm
11:40 AM 67.7°F19.8°C 67.4°F19.7°C 99% 3.5 mph SE5.6 kmh SE 5.8 mph9.3 kmh 29.97 in1014.9 mb - 0.00 in0.0 mm 0.31 in7.9 mm
11:50 AM 67.9°F19.9°C 67.6°F19.8°C 99% 3.5 mph E5.6 kmh E 6.9 mph11.1 kmh 29.97 in1014.9 mb - 0.00 in0.0 mm 0.31 in7.9 mm
12:00 PM 68.1°F20.1°C 67.8°F19.9°C 99% 4.6 mph SE7.4 kmh SE 3.5 mph5.6 kmh 29.97 in1014.9 mb - 0.00 in0.0 mm 0.31 in7.9 mm
12:10 PM 68.1°F20.1°C 67.5°F19.7°C 98% 4.6 mph S7.4 kmh S 8.1 mph13.0 kmh 29.97 in1014.9 mb - 0.00 in0.0 mm 0.31 in7.9 mm
12:20 PM 67.9°F19.9°C 67.6°F19.8°C 99% 5.8 mph S9.3 kmh S 11.5 mph18.5 kmh 29.97 in1014.9 mb - 0.00 in0.0 mm 0.31 in7.9 mm
12:30 PM 67.7°F19.8°C 67.4°F19.7°C 99% 5.8 mph SE9.3 kmh SE 10.4 mph16.7 kmh 29.97 in1014.9 mb - 0.00 in0.0 mm 0.31 in7.9 mm
12:40 PM 67.5°F19.7°C 67.2°F19.6°C 99% 4.6 mph SE7.4 kmh SE 8.1 mph13.0 kmh 29.97 in1014.9 mb - 0.00 in0.0 mm 0.31 in7.9 mm
12:50 PM 67.6°F19.8°C 67.3°F19.6°C 99% 4.6 mph SE7.4 kmh SE 9.2 mph14.8 kmh 29.96 in1014.6 mb - 0.00 in0.0 mm 0.31 in7.9 mm
01:00 PM 67.9°F19.9°C 67.6°F19.8°C 99% 3.5 mph SSE5.6 kmh SSE 5.8 mph9.3 kmh 29.96 in1014.6 mb - 0.01 in0.3 mm 0.32 in8.1 mm
01:10 PM 68.4°F20.2°C 68.1°F20.1°C 99% 3.5 mph SE5.6 kmh SE 9.2 mph14.8 kmh 29.96 in1014.6 mb - 0.01 in0.3 mm 0.32 in8.1 mm
01:20 PM 68.9°F20.5°C 67.1°F19.5°C 94% 5.8 mph SE9.3 kmh SE 8.1 mph13.0 kmh 29.97 in1014.9 mb - 0.01 in0.3 mm 0.32 in8.1 mm
01:30 PM 68.6°F20.3°C 66.5°F19.2°C 93% 4.6 mph SE7.4 kmh SE 8.1 mph13.0 kmh 29.97 in1014.9 mb - 0.01 in0.3 mm 0.32 in8.1 mm
01:40 PM 67.9°F19.9°C 65.8°F18.8°C 93% 2.3 mph SE3.7 kmh SE 6.9 mph11.1 kmh 29.97 in1014.9 mb - 0.01 in0.3 mm 0.32 in8.1 mm
01:50 PM 67.9°F19.9°C 66.4°F19.1°C 95% 5.8 mph SE9.3 kmh SE 9.2 mph14.8 kmh 29.97 in1014.9 mb - 0.01 in0.3 mm 0.32 in8.1 mm
02:00 PM 67.9°F19.9°C 66.4°F19.1°C 95% 5.8 mph S9.3 kmh S 10.4 mph16.7 kmh 29.97 in1014.9 mb - 0.00 in0.0 mm 0.32 in8.1 mm
02:10 PM 67.2°F19.6°C 66.1°F18.9°C 96% 4.6 mph SE7.4 kmh SE 10.4 mph16.7 kmh 29.97 in1014.9 mb - 0.00 in0.0 mm 0.32 in8.1 mm
02:20 PM 65.9°F18.8°C 65.0°F18.3°C 97% 6.9 mph SSW11.1 kmh SSW 8.1 mph13.0 kmh 29.96 in1014.6 mb - 0.00 in0.0 mm 0.32 in8.1 mm
02:30 PM 65.4°F18.6°C 64.8°F18.2°C 98% 3.5 mph S5.6 kmh S 6.9 mph11.1 kmh 29.94 in1013.9 mb - 0.00 in0.0 mm 0.32 in8.1 mm
02:40 PM 65.2°F18.4°C 64.6°F18.1°C 98% 3.5 mph SSE5.6 kmh SSE 3.5 mph5.6 kmh 29.95 in1014.2 mb - 0.00 in0.0 mm 0.32 in8.1 mm
02:50 PM 65.6°F18.7°C 64.7°F18.2°C 97% 5.8 mph SE9.3 kmh SE 9.2 mph14.8 kmh 29.95 in1014.2 mb - 0.00 in0.0 mm 0.32 in8.1 mm
03:00 PM 65.9°F18.8°C 64.1°F17.8°C 94% 4.6 mph SSE7.4 kmh SSE 15.0 mph24.1 kmh 29.95 in1014.2 mb - 0.00 in0.0 mm 0.32 in8.1 mm
03:10 PM 65.9°F18.8°C 64.4°F18.0°C 95% 5.8 mph SSE9.3 kmh SSE 9.2 mph14.8 kmh 29.95 in1014.2 mb - 0.00 in0.0 mm 0.32 in8.1 mm
03:20 PM 65.7°F18.7°C 64.8°F18.2°C 97% 4.6 mph SE7.4 kmh SE 8.1 mph13.0 kmh 29.95 in1014.2 mb - 0.00 in0.0 mm 0.32 in8.1 mm
03:30 PM 65.7°F18.7°C 65.1°F18.4°C 98% 6.9 mph SSE11.1 kmh SSE 11.5 mph18.5 kmh 29.95 in1014.2 mb - 0.00 in0.0 mm 0.32 in8.1 mm
03:40 PM 65.7°F18.7°C 65.1°F18.4°C 98% 5.8 mph SE9.3 kmh SE 9.2 mph14.8 kmh 29.97 in1014.9 mb - 0.00 in0.0 mm 0.32 in8.1 mm
03:50 PM 65.2°F18.4°C 64.6°F18.1°C 98% 5.8 mph S9.3 kmh S 15.0 mph24.1 kmh 29.97 in1014.9 mb - 0.00 in0.0 mm 0.32 in8.1 mm
04:00 PM 64.7°F18.2°C 64.1°F17.8°C 98% 3.5 mph S5.6 kmh S 13.8 mph22.2 kmh 29.98 in1015.2 mb - 0.00 in0.0 mm 0.32 in8.1 mm
04:10 PM 64.4°F18.0°C 63.8°F17.7°C 98% 5.8 mph SW9.3 kmh SW 8.1 mph13.0 kmh 29.99 in1015.6 mb - 0.00 in0.0 mm 0.32 in8.1 mm
04:20 PM 64.0°F17.8°C 63.4°F17.4°C 98% 3.5 mph S5.6 kmh S 8.1 mph13.0 kmh 29.99 in1015.6 mb - 0.00 in0.0 mm 0.32 in8.1 mm
04:30 PM 63.6°F17.6°C 63.0°F17.2°C 98% 4.6 mph SSW7.4 kmh SSW 5.8 mph9.3 kmh 30.00 in1015.9 mb - 0.00 in0.0 mm 0.32 in8.1 mm
04:40 PM 63.0°F17.2°C 62.4°F16.9°C 98% 5.8 mph SE9.3 kmh SE 5.8 mph9.3 kmh 30.00 in1015.9 mb - 0.00 in0.0 mm 0.32 in8.1 mm
04:50 PM 62.8°F17.1°C 62.2°F16.8°C 98% 3.5 mph S5.6 kmh S 6.9 mph11.1 kmh 30.00 in1015.9 mb - 0.00 in0.0 mm 0.32 in8.1 mm
05:00 PM 62.4°F16.9°C 61.8°F16.6°C 98% 2.3 mph SE3.7 kmh SE 5.8 mph9.3 kmh 29.99 in1015.6 mb - 0.01 in0.3 mm 0.33 in8.4 mm
05:10 PM 61.9°F16.6°C 61.3°F16.3°C 98% 3.5 mph SE5.6 kmh SE 2.3 mph3.7 kmh 29.99 in1015.6 mb - 0.02 in0.5 mm 0.34 in8.6 mm
05:20 PM 61.7°F16.5°C 61.1°F16.2°C 98% 3.5 mph SE5.6 kmh SE 5.8 mph9.3 kmh 29.99 in1015.6 mb - 0.02 in0.5 mm 0.34 in8.6 mm
05:30 PM 61.6°F16.4°C 61.0°F16.1°C 98% 5.8 mph SE9.3 kmh SE 8.1 mph13.0 kmh 29.99 in1015.6 mb - 0.02 in0.5 mm 0.34 in8.6 mm
05:40 PM 61.6°F16.4°C 61.0°F16.1°C 98% 4.6 mph SE7.4 kmh SE 11.5 mph18.5 kmh 29.99 in1015.6 mb - 0.02 in0.5 mm 0.34 in8.6 mm
05:50 PM 61.6°F16.4°C 61.0°F16.1°C 98% 4.6 mph SE7.4 kmh SE 2.3 mph3.7 kmh 30.00 in1015.9 mb - 0.02 in0.5 mm 0.34 in8.6 mm
06:00 PM 61.6°F16.4°C 61.0°F16.1°C 98% 3.5 mph SSE5.6 kmh SSE 3.5 mph5.6 kmh 30.00 in1015.9 mb - 0.02 in0.5 mm 0.35 in8.9 mm
06:10 PM 61.6°F16.4°C 61.0°F16.1°C 98% 2.3 mph NE3.7 kmh NE 2.3 mph3.7 kmh 29.99 in1015.6 mb - 0.01 in0.3 mm 0.35 in8.9 mm
06:20 PM 61.6°F16.4°C 61.0°F16.1°C 98% 2.3 mph S3.7 kmh S 3.5 mph5.6 kmh 30.00 in1015.9 mb - 0.02 in0.5 mm 0.36 in9.1 mm
06:30 PM 61.7°F16.5°C 61.1°F16.2°C 98% 2.3 mph SE3.7 kmh SE 2.3 mph3.7 kmh 30.01 in1016.3 mb - 0.02 in0.5 mm 0.36 in9.1 mm
06:40 PM 61.9°F16.6°C 61.3°F16.3°C 98% 2.3 mph ESE3.7 kmh ESE 2.3 mph3.7 kmh 30.00 in1015.9 mb - 0.03 in0.8 mm 0.37 in9.4 mm
06:50 PM 61.9°F16.6°C 61.3°F16.3°C 98% 3.5 mph SE5.6 kmh SE 5.8 mph9.3 kmh 30.01 in1016.3 mb - 0.03 in0.8 mm 0.37 in9.4 mm
07:00 PM 62.1°F16.7°C 61.5°F16.4°C 98% 1.2 mph SE1.9 kmh SE 2.3 mph3.7 kmh 30.01 in1016.3 mb - 0.03 in0.8 mm 0.38 in9.7 mm
07:10 PM 62.5°F16.9°C 61.9°F16.6°C 98% 4.6 mph SE7.4 kmh SE 5.8 mph9.3 kmh 30.00 in1015.9 mb - 0.03 in0.8 mm 0.38 in9.7 mm
07:20 PM 62.8°F17.1°C 62.2°F16.8°C 98% 3.5 mph ESE5.6 kmh ESE 3.5 mph5.6 kmh 30.00 in1015.9 mb - 0.02 in0.5 mm 0.38 in9.7 mm
07:30 PM 62.8°F17.1°C 62.2°F16.8°C 98% 4.6 mph SE7.4 kmh SE 8.1 mph13.0 kmh 29.98 in1015.2 mb - 0.03 in0.8 mm 0.39 in9.9 mm
07:40 PM 62.7°F17.1°C 62.1°F16.7°C 98% 5.8 mph SE9.3 kmh SE 9.2 mph14.8 kmh 29.99 in1015.6 mb - 0.02 in0.5 mm 0.39 in9.9 mm
07:50 PM 62.5°F16.9°C 61.9°F16.6°C 98% 2.3 mph E3.7 kmh E 2.3 mph3.7 kmh 29.99 in1015.6 mb - 0.02 in0.5 mm 0.39 in9.9 mm
08:00 PM 62.4°F16.9°C 61.8°F16.6°C 98% 3.5 mph ESE5.6 kmh ESE 9.2 mph14.8 kmh 29.99 in1015.6 mb - 0.01 in0.3 mm 0.39 in9.9 mm
08:10 PM 62.4°F16.9°C 61.8°F16.6°C 98% 2.3 mph S3.7 kmh S 2.3 mph3.7 kmh 29.99 in1015.6 mb - 0.01 in0.3 mm 0.39 in9.9 mm
08:20 PM 62.3°F16.8°C 61.7°F16.5°C 98% 3.5 mph SSW5.6 kmh SSW 8.1 mph13.0 kmh 30.02 in1016.6 mb - 0.01 in0.3 mm 0.39 in9.9 mm
08:30 PM 62.2°F16.8°C 61.6°F16.4°C 98% 3.5 mph S5.6 kmh S 3.5 mph5.6 kmh 30.01 in1016.3 mb - 0.00 in0.0 mm 0.39 in9.9 mm
08:40 PM 61.9°F16.6°C 61.3°F16.3°C 98% 4.6 mph SE7.4 kmh SE 2.3 mph3.7 kmh 30.02 in1016.6 mb - 0.00 in0.0 mm 0.39 in9.9 mm
08:50 PM 61.7°F16.5°C 61.1°F16.2°C 98% 2.3 mph S3.7 kmh S 2.3 mph3.7 kmh 30.01 in1016.3 mb - 0.00 in0.0 mm 0.39 in9.9 mm
09:00 PM 61.3°F16.3°C 60.7°F15.9°C 98% 2.3 mph SSE3.7 kmh SSE 2.3 mph3.7 kmh 30.02 in1016.6 mb - 0.00 in0.0 mm 0.39 in9.9 mm
09:10 PM 60.6°F15.9°C 60.1°F15.6°C 98% 2.3 mph ESE3.7 kmh ESE 5.8 mph9.3 kmh 30.01 in1016.3 mb - 0.00 in0.0 mm 0.39 in9.9 mm
09:20 PM 59.9°F15.5°C 59.3°F15.2°C 98% 2.3 mph SSE3.7 kmh SSE 3.5 mph5.6 kmh 30.02 in1016.6 mb - 0.00 in0.0 mm 0.39 in9.9 mm
09:30 PM 59.7°F15.4°C 59.1°F15.1°C 98% 3.5 mph SW5.6 kmh SW 13.8 mph22.2 kmh 30.03 in1016.9 mb - 0.00 in0.0 mm 0.39 in9.9 mm
09:40 PM 59.5°F15.3°C 59.0°F15.0°C 98% 5.8 mph SSW9.3 kmh SSW 9.2 mph14.8 kmh 30.02 in1016.6 mb - 0.00 in0.0 mm 0.39 in9.9 mm
09:50 PM 59.4°F15.2°C 58.9°F14.9°C 98% 2.3 mph S3.7 kmh S 2.3 mph3.7 kmh 30.03 in1016.9 mb - 0.00 in0.0 mm 0.39 in9.9 mm
10:00 PM 59.5°F15.3°C 58.9°F14.9°C 98% 3.5 mph SSE5.6 kmh SSE 2.3 mph3.7 kmh 30.02 in1016.6 mb - 0.00 in0.0 mm 0.39 in9.9 mm
10:10 PM 59.6°F15.3°C 59.0°F15.0°C 98% 2.3 mph SE3.7 kmh SE 2.3 mph3.7 kmh 30.01 in1016.3 mb - 0.00 in0.0 mm 0.39 in9.9 mm
10:20 PM 59.7°F15.4°C 59.1°F15.1°C 98% 1.2 mph SSW1.9 kmh SSW 1.2 mph1.9 kmh 30.02 in1016.6 mb - 0.01 in0.3 mm 0.40 in10.2 mm
10:30 PM 59.7°F15.4°C 59.1°F15.1°C 98% 2.3 mph S3.7 kmh S 2.3 mph3.7 kmh 30.02 in1016.6 mb - 0.01 in0.3 mm 0.40 in10.2 mm
10:40 PM 59.6°F15.3°C 59.0°F15.0°C 98% 1.2 mph SW1.9 kmh SW 2.3 mph3.7 kmh 30.01 in1016.3 mb - 0.01 in0.3 mm 0.40 in10.2 mm
10:50 PM 59.4°F15.2°C 58.8°F14.9°C 98% 2.3 mph SSE3.7 kmh SSE 2.3 mph3.7 kmh 30.00 in1015.9 mb - 0.02 in0.5 mm 0.41 in10.4 mm
11:00 PM 59.3°F15.2°C 58.7°F14.8°C 98% 1.2 mph WSW1.9 kmh WSW 2.3 mph3.7 kmh 30.00 in1015.9 mb - 0.02 in0.5 mm 2.05 in52.1 mm
11:10 PM 59.2°F15.1°C 58.6°F14.8°C 98% 2.3 mph W3.7 kmh W 2.3 mph3.7 kmh 29.99 in1015.6 mb - 0.02 in0.5 mm 2.07 in52.6 mm
11:20 PM 59.0°F15.0°C 58.5°F14.7°C 98% 2.3 mph WSW3.7 kmh WSW 2.3 mph3.7 kmh 30.00 in1015.9 mb - 0.01 in0.3 mm 2.08 in52.8 mm
11:30 PM 58.9°F14.9°C 58.3°F14.6°C 98% 2.3 mph SW3.7 kmh SW 3.5 mph5.6 kmh 30.00 in1015.9 mb - 0.01 in0.3 mm 2.09 in53.1 mm
11:40 PM 58.7°F14.8°C 58.1°F14.5°C 98% Calm Calm -- 30.00 in1015.9 mb - 0.02 in0.5 mm 0.01 in0.3 mm
11:50 PM 58.6°F14.8°C 58.1°F14.5°C 98% Calm Calm 1.2 mph1.9 kmh 30.00 in1015.9 mb - 0.06 in1.5 mm 0.06 in1.5 mm